Time;durP1;ratioP1;P1;durP2;ratioP2;P2;SDS_P1;SDS_P2;PMS_P1;PMS_P2;Temp;Humidity;BMP_temperature;BMP_pressure;BME280_temperature;BME280_humidity;BME280_pressure;Samples;Min_cycle;Max_cycle;Signal;HPM_P1;HPM_P2
2023/09/20 00:00:38;;;;;;;2.97;1.13;;;18.00;82.50;;;;;;5106070;28;20846;-68
2023/09/20 00:03:04;;;;;;;4.45;1.10;;;17.90;82.60;;;;;;5105444;28;20122;-68
2023/09/20 00:05:30;;;;;;;2.30;1.02;;;17.90;82.40;;;;;;5104808;28;20051;-68
2023/09/20 00:07:56;;;;;;;2.50;1.10;;;17.90;82.80;;;;;;5104105;28;20020;-68
2023/09/20 00:10:22;;;;;;;3.30;1.25;;;17.90;82.60;;;;;;5098455;28;20398;-69
2023/09/20 00:12:48;;;;;;;7.22;1.75;;;17.90;82.80;;;;;;5104506;28;20589;-68
2023/09/20 00:15:14;;;;;;;3.83;1.60;;;17.80;83.00;;;;;;5105404;28;20036;-69
2023/09/20 00:17:40;;;;;;;5.32;1.35;;;17.80;82.80;;;;;;5104504;28;20831;-68
2023/09/20 00:20:13;;;;;;;9.18;2.00;;;17.90;82.80;;;;;;5101979;28;20077;-68
2023/09/20 00:22:43;;;;;;;4.80;1.48;;;17.80;82.40;;;;;;5105359;28;20032;-68
2023/09/20 00:25:13;;;;;;;8.88;1.50;;;17.80;82.10;;;;;;5105204;28;20031;-68
2023/09/20 00:27:40;;;;;;;6.68;1.52;;;17.70;82.90;;;;;;5105131;28;20031;-69
2023/09/20 00:30:09;;;;;;;7.40;1.42;;;17.60;82.80;;;;;;5105705;28;20024;-68
2023/09/20 00:32:37;;;;;;;2.85;1.17;;;17.60;83.00;;;;;;5105800;28;20049;-68
2023/09/20 00:35:03;;;;;;;4.57;1.20;;;17.60;83.90;;;;;;5101205;28;20015;-68
2023/09/20 00:37:30;;;;;;;7.88;1.48;;;17.60;83.70;;;;;;5101310;28;20774;-68
2023/09/20 00:39:55;;;;;;;6.68;1.30;;;17.70;83.20;;;;;;5103488;28;20514;-68
2023/09/20 00:42:21;;;;;;;4.35;1.63;;;17.60;83.20;;;;;;5103576;28;20049;-68
2023/09/20 00:44:47;;;;;;;4.70;1.52;;;17.60;83.80;;;;;;5102340;28;20128;-68
2023/09/20 00:47:14;;;;;;;3.33;1.38;;;17.60;83.90;;;;;;5104568;28;20028;-68
2023/09/20 00:49:45;;;;;;;2.10;1.10;;;17.60;84.00;;;;;;5103352;28;20481;-68
2023/09/20 00:52:13;;;;;;;5.05;1.30;;;17.60;84.70;;;;;;5105068;28;20024;-68
2023/09/20 00:54:41;;;;;;;3.95;1.38;;;17.60;84.70;;;;;;5103202;28;20058;-69
2023/09/20 00:57:09;;;;;;;3.30;1.10;;;17.60;84.40;;;;;;5086360;28;20032;-68
2023/09/20 00:59:36;;;;;;;4.47;1.20;;;17.70;84.80;;;;;;5104896;28;20040;-68
2023/09/20 01:02:03;;;;;;;3.03;1.30;;;17.70;84.50;;;;;;5103400;28;20049;-68
2023/09/20 01:04:29;;;;;;;5.90;1.10;;;17.70;84.80;;;;;;5103301;28;20034;-68
2023/09/20 01:06:55;;;;;;;7.78;1.63;;;17.70;85.00;;;;;;5096313;28;20023;-68
2023/09/20 01:09:24;;;;;;;5.55;1.35;;;17.70;85.10;;;;;;5103345;28;20108;-68
2023/09/20 01:11:51;;;;;;;3.90;1.50;;;17.70;85.20;;;;;;5103515;28;20039;-68
2023/09/20 01:14:19;;;;;;;5.38;1.38;;;17.70;85.30;;;;;;5104904;28;20059;-68
2023/09/20 01:16:45;;;;;;;4.95;1.40;;;17.60;85.50;;;;;;5101575;28;20184;-68
2023/09/20 01:19:11;;;;;;;3.08;1.70;;;17.50;85.70;;;;;;5101142;28;20024;-69
2023/09/20 01:21:43;;;;;;;4.90;1.60;;;17.50;85.80;;;;;;5102771;28;20030;-68
2023/09/20 01:24:10;;;;;;;5.45;1.38;;;17.50;86.20;;;;;;5103959;28;20108;-69
2023/09/20 01:26:39;;;;;;;2.38;1.17;;;17.50;86.10;;;;;;5099605;28;20826;-68
2023/09/20 01:29:05;;;;;;;3.15;1.23;;;17.50;86.50;;;;;;5103044;28;20047;-68
2023/09/20 01:31:31;;;;;;;4.63;1.25;;;17.60;86.30;;;;;;5098888;28;20036;-68
2023/09/20 01:33:57;;;;;;;4.38;1.40;;;17.60;86.20;;;;;;5102597;28;20038;-69
2023/09/20 01:36:23;;;;;;;5.32;1.13;;;17.50;85.70;;;;;;5098896;28;20061;-68
2023/09/20 01:38:48;;;;;;;3.55;1.05;;;17.50;86.10;;;;;;5100515;28;20036;-69
2023/09/20 01:41:14;;;;;;;2.65;1.40;;;17.60;86.20;;;;;;5100739;28;20042;-68
2023/09/20 01:43:41;;;;;;;3.88;1.02;;;17.60;86.20;;;;;;5103028;28;20016;-69
2023/09/20 01:46:09;;;;;;;5.03;1.50;;;17.60;86.30;;;;;;5104591;28;20212;-69
2023/09/20 01:48:36;;;;;;;9.77;1.20;;;17.60;86.30;;;;;;5101654;28;20039;-69
2023/09/20 01:51:03;;;;;;;3.38;1.42;;;17.60;85.90;;;;;;5104161;28;20024;-69
2023/09/20 01:53:29;;;;;;;2.15;1.00;;;17.60;85.80;;;;;;5102800;28;20027;-68
2023/09/20 01:55:57;;;;;;;3.60;1.30;;;17.60;86.20;;;;;;5102936;28;20032;-69
2023/09/20 01:58:23;;;;;;;3.13;1.02;;;17.60;87.00;;;;;;5106437;28;20061;-68
2023/09/20 02:00:52;;;;;;;2.90;1.13;;;17.60;86.70;;;;;;5106899;28;20061;-69
2023/09/20 02:03:18;;;;;;;4.68;1.58;;;17.70;86.00;;;;;;5106283;28;20028;-69
2023/09/20 02:05:47;;;;;;;5.78;1.25;;;17.70;86.30;;;;;;5106051;28;20028;-69
2023/09/20 02:08:13;;;;;;;3.88;1.38;;;17.70;87.10;;;;;;5106526;28;20509;-69
2023/09/20 02:10:40;;;;;;;2.90;1.20;;;17.80;87.10;;;;;;5106271;28;20036;-69
2023/09/20 02:13:07;;;;;;;4.85;1.50;;;17.90;86.90;;;;;;5101638;28;20032;-69
2023/09/20 02:15:34;;;;;;;3.15;1.10;;;17.90;86.80;;;;;;5103182;28;20032;-69
2023/09/20 02:18:05;;;;;;;9.10;1.38;;;17.90;86.80;;;;;;5105941;28;20076;-69
2023/09/20 02:20:36;;;;;;;4.50;1.27;;;17.90;86.60;;;;;;5107767;28;20030;-68
2023/09/20 02:23:03;;;;;;;3.38;1.17;;;17.90;86.20;;;;;;5106181;28;20027;-68
2023/09/20 02:25:29;;;;;;;3.60;1.10;;;17.90;87.00;;;;;;5106382;28;20487;-69
2023/09/20 02:28:02;;;;;;;2.88;1.10;;;17.80;87.20;;;;;;5103068;28;20030;-68
2023/09/20 02:30:31;;;;;;;2.75;1.20;;;17.80;87.10;;;;;;5099158;28;20488;-68
2023/09/20 02:32:58;;;;;;;2.80;1.20;;;17.90;87.50;;;;;;5099401;28;20118;-68
2023/09/20 02:35:26;;;;;;;3.75;1.73;;;17.80;86.80;;;;;;5107573;28;20757;-69
2023/09/20 02:37:54;;;;;;;2.67;1.02;;;17.90;87.10;;;;;;5106087;28;20012;-68
2023/09/20 02:40:23;;;;;;;4.00;1.10;;;17.90;87.40;;;;;;5106195;28;20031;-68
2023/09/20 02:42:52;;;;;;;2.72;1.27;;;17.90;87.00;;;;;;5105516;28;20038;-68
2023/09/20 02:45:19;;;;;;;4.55;1.30;;;18.00;87.20;;;;;;5103907;28;20027;-69
2023/09/20 02:47:46;;;;;;;3.55;1.17;;;18.00;86.70;;;;;;5103455;28;20035;-68
2023/09/20 02:50:13;;;;;;;3.13;1.10;;;18.00;87.30;;;;;;5107336;28;20027;-68
2023/09/20 02:52:43;;;;;;;2.00;1.10;;;18.00;87.30;;;;;;5105963;28;20035;-69
2023/09/20 02:55:12;;;;;;;3.42;1.42;;;18.00;87.50;;;;;;5106419;28;20055;-69
2023/09/20 02:57:38;;;;;;;3.83;1.15;;;18.00;87.30;;;;;;5102550;28;20035;-68
2023/09/20 03:00:16;;;;;;;2.28;1.17;;;18.00;87.40;;;;;;5105206;28;20031;-69
2023/09/20 03:02:45;;;;;;;2.42;1.00;;;18.00;87.50;;;;;;5105541;28;20862;-68
2023/09/20 03:05:17;;;;;;;5.43;1.27;;;18.00;87.80;;;;;;5107121;28;20062;-69
2023/09/20 03:07:44;;;;;;;2.22;1.13;;;18.00;88.00;;;;;;5105883;27;20544;-68
2023/09/20 03:10:14;;;;;;;4.03;1.30;;;17.90;88.20;;;;;;5102122;28;20024;-69
2023/09/20 03:12:45;;;;;;;1.83;1.30;;;17.90;88.40;;;;;;5106592;28;20028;-69
2023/09/20 03:15:21;;;;;;;2.97;1.13;;;18.00;88.50;;;;;;5104540;28;20023;-69
2023/09/20 03:17:51;;;;;;;;;;;17.90;88.30;;;;;;5102770;28;20031;-68
2023/09/20 03:20:24;;;;;;;3.38;1.27;;;17.90;88.10;;;;;;5102859;28;20029;-69
2023/09/20 03:23:03;;;;;;;1.60;1.00;;;17.90;88.70;;;;;;5105061;28;20032;-69
2023/09/20 03:25:36;;;;;;;2.15;1.05;;;17.80;89.20;;;;;;5105128;28;20866;-69
2023/09/20 03:28:07;;;;;;;2.58;1.17;;;17.80;89.00;;;;;;5105141;28;20031;-69
2023/09/20 03:30:34;;;;;;;2.03;1.13;;;17.80;89.60;;;;;;5104637;28;20114;-69
2023/09/20 03:33:01;;;;;;;3.35;1.30;;;17.80;90.00;;;;;;5104470;28;20027;-69
2023/09/20 03:35:30;;;;;;;2.75;1.35;;;17.80;90.00;;;;;;5103760;28;20031;-69
2023/09/20 03:37:56;;;;;;;3.88;1.27;;;17.80;89.90;;;;;;5101933;28;20087;-69
2023/09/20 03:40:22;;;;;;;2.13;1.02;;;17.70;90.20;;;;;;5100453;28;20027;-69
2023/09/20 03:42:52;;;;;;;1.75;1.13;;;17.70;90.30;;;;;;5086643;28;20509;-69
2023/09/20 03:45:18;;;;;;;4.22;1.80;;;17.70;90.50;;;;;;5099456;28;20058;-69
2023/09/20 03:47:49;;;;;;;2.45;0.98;;;17.60;90.50;;;;;;5103814;28;20477;-69
2023/09/20 03:50:19;;;;;;;3.55;1.08;;;17.60;90.60;;;;;;5104741;28;20507;-69
2023/09/20 03:52:46;;;;;;;2.67;1.10;;;17.60;90.70;;;;;;5105815;28;20744;-69
2023/09/20 03:55:12;;;;;;;2.53;0.95;;;17.60;90.70;;;;;;5100249;28;20143;-69
2023/09/20 03:57:39;;;;;;;6.00;1.70;;;17.60;90.80;;;;;;5104348;28;20574;-69
2023/09/20 04:00:07;;;;;;;2.22;1.13;;;17.60;90.70;;;;;;5104497;28;20034;-69
2023/09/20 04:02:39;;;;;;;3.30;1.30;;;17.60;90.60;;;;;;5105959;28;20043;-69
2023/09/20 04:05:25;;;;;;;1.50;0.80;;;17.60;90.80;;;;;;5104720;28;20031;-68
2023/09/20 04:07:51;;;;;;;2.80;1.08;;;17.50;90.80;;;;;;5099665;28;20027;-68
2023/09/20 04:10:18;;;;;;;4.82;1.10;;;17.50;90.90;;;;;;5105579;28;20027;-68
2023/09/20 04:12:45;;;;;;;1.40;1.00;;;17.50;90.80;;;;;;5101419;28;20036;-68
2023/09/20 04:15:11;;;;;;;3.95;1.17;;;17.50;90.70;;;;;;5100187;28;20103;-69
2023/09/20 04:17:38;;;;;;;2.47;1.25;;;17.40;90.80;;;;;;5105229;28;20047;-69
2023/09/20 04:20:06;;;;;;;1.83;1.13;;;17.40;90.90;;;;;;5103589;28;20114;-69
2023/09/20 04:22:33;;;;;;;2.63;0.98;;;17.40;91.00;;;;;;5103837;28;20030;-69
2023/09/20 04:25:00;;;;;;;3.25;1.02;;;17.40;90.90;;;;;;5101773;28;20055;-69
2023/09/20 04:27:30;;;;;;;3.08;1.08;;;17.40;91.10;;;;;;5103986;28;20050;-69
2023/09/20 04:29:56;;;;;;;2.33;1.05;;;17.40;91.20;;;;;;5095918;28;20023;-68
2023/09/20 04:32:23;;;;;;;3.25;1.15;;;17.40;91.20;;;;;;5105293;28;20479;-68
2023/09/20 04:34:52;;;;;;;2.95;1.20;;;17.40;91.30;;;;;;5101652;28;20681;-68
2023/09/20 04:37:19;;;;;;;3.63;1.35;;;17.40;91.50;;;;;;5103591;28;20027;-68
2023/09/20 04:39:46;;;;;;;3.28;0.93;;;17.30;91.40;;;;;;5103258;28;20050;-68
2023/09/20 04:42:13;;;;;;;2.35;0.98;;;17.40;91.90;;;;;;5097490;28;20024;-68
2023/09/20 04:44:41;;;;;;;4.55;1.33;;;17.40;91.40;;;;;;5102222;28;20509;-68
2023/09/20 04:47:08;;;;;;;4.30;1.60;;;17.30;91.70;;;;;;5103645;28;20094;-68
2023/09/20 04:49:34;;;;;;;3.42;1.00;;;17.30;91.60;;;;;;5101613;28;20126;-69
2023/09/20 04:52:01;;;;;;;1.70;1.23;;;17.30;91.80;;;;;;5103810;28;20020;-68
2023/09/20 04:54:27;;;;;;;2.60;0.88;;;17.30;91.80;;;;;;5103177;28;20030;-68
2023/09/20 04:56:53;;;;;;;2.58;1.38;;;17.30;92.00;;;;;;5102424;28;20039;-68
2023/09/20 04:59:19;;;;;;;5.38;1.70;;;17.20;92.10;;;;;;5102283;28;20084;-69
2023/09/20 05:01:46;;;;;;;3.63;0.93;;;17.20;92.20;;;;;;5103524;28;20047;-68
2023/09/20 05:04:13;;;;;;;3.60;1.00;;;17.20;92.30;;;;;;5099354;28;20082;-68
2023/09/20 05:06:43;;;;;;;4.10;1.20;;;17.20;92.30;;;;;;5103082;28;20031;-68
2023/09/20 05:09:09;;;;;;;6.32;1.20;;;17.10;92.40;;;;;;5100922;28;20786;-69
2023/09/20 05:11:35;;;;;;;4.78;1.40;;;17.20;92.50;;;;;;5101782;28;20084;-68
2023/09/20 05:14:02;;;;;;;3.45;1.27;;;17.20;92.50;;;;;;5104697;28;20066;-68
2023/09/20 05:16:28;;;;;;;2.60;1.08;;;17.20;92.50;;;;;;5103273;28;20061;-68
2023/09/20 05:18:54;;;;;;;1.05;0.80;;;17.20;92.90;;;;;;5098790;28;20235;-69
2023/09/20 05:21:20;;;;;;;4.07;1.15;;;17.20;92.50;;;;;;5099328;28;20593;-68
2023/09/20 05:23:46;;;;;;;3.63;0.98;;;17.20;92.70;;;;;;5103406;28;20035;-68
2023/09/20 05:26:11;;;;;;;2.92;1.10;;;17.20;92.80;;;;;;5102998;28;20484;-68
2023/09/20 05:28:37;;;;;;;2.42;1.52;;;17.20;92.80;;;;;;5103221;28;20167;-68
2023/09/20 05:31:04;;;;;;;2.63;1.20;;;17.20;92.90;;;;;;5103302;28;20027;-68
2023/09/20 05:33:30;;;;;;;4.68;1.30;;;17.20;92.90;;;;;;5097137;28;20546;-68
2023/09/20 05:35:57;;;;;;;2.45;1.00;;;17.20;93.00;;;;;;5103898;28;20060;-68
2023/09/20 05:38:24;;;;;;;3.72;0.90;;;17.20;93.10;;;;;;5105042;28;20047;-68
2023/09/20 05:40:50;;;;;;;1.80;1.30;;;17.20;93.30;;;;;;5108691;28;20034;-68
2023/09/20 05:43:16;;;;;;;2.80;1.20;;;17.20;93.30;;;;;;5103593;28;20384;-68
2023/09/20 05:45:42;;;;;;;3.72;1.17;;;17.20;93.30;;;;;;5106317;28;20129;-68
2023/09/20 05:48:12;;;;;;;2.78;1.27;;;17.30;93.40;;;;;;5108734;28;20038;-68
2023/09/20 05:50:40;;;;;;;2.67;1.30;;;17.40;93.30;;;;;;5108450;28;20035;-68
2023/09/20 05:53:08;;;;;;;3.30;1.20;;;17.40;93.70;;;;;;5102256;27;20035;-68
2023/09/20 05:55:43;;;;;;;3.50;1.15;;;17.50;93.40;;;;;;5105811;28;20028;-69
2023/09/20 05:58:10;;;;;;;1.30;1.05;;;17.50;93.30;;;;;;5103613;28;20043;-68
2023/09/20 06:00:36;;;;;;;2.60;1.20;;;17.50;93.30;;;;;;5104557;28;20527;-68
2023/09/20 06:03:05;;;;;;;4.93;1.20;;;17.60;93.40;;;;;;5108290;28;20069;-68
2023/09/20 06:05:35;;;;;;;1.95;1.30;;;17.60;93.50;;;;;;5106695;28;20035;-68
2023/09/20 06:08:01;;;;;;;4.65;1.20;;;17.60;93.30;;;;;;5099669;28;20032;-68
2023/09/20 06:10:27;;;;;;;3.33;1.10;;;17.60;93.60;;;;;;5107472;28;20039;-69
2023/09/20 06:12:53;;;;;;;4.22;1.45;;;17.60;93.70;;;;;;5108181;28;20026;-68
2023/09/20 06:15:19;;;;;;;3.08;0.80;;;17.70;93.80;;;;;;5107753;28;20061;-68
2023/09/20 06:17:47;;;;;;;2.65;0.90;;;17.70;93.70;;;;;;5096671;28;20032;-68
2023/09/20 06:20:19;;;;;;;4.72;1.45;;;17.70;93.70;;;;;;5103908;28;20115;-68
2023/09/20 06:22:49;;;;;;;3.47;1.27;;;17.80;93.90;;;;;;5103089;28;20036;-68
2023/09/20 06:25:15;;;;;;;4.53;1.15;;;17.80;93.80;;;;;;5107715;28;20039;-68
2023/09/20 06:27:41;;;;;;;5.63;1.00;;;17.90;93.70;;;;;;5107722;28;20509;-68
2023/09/20 06:30:13;;;;;;;3.53;1.00;;;18.00;93.60;;;;;;5107212;28;20031;-68
2023/09/20 06:32:44;;;;;;;2.47;0.98;;;18.00;93.80;;;;;;5107871;28;20107;-68
2023/09/20 06:35:11;;;;;;;3.10;1.08;;;18.10;93.90;;;;;;5108038;28;20453;-68
2023/09/20 06:37:40;;;;;;;3.72;1.20;;;18.20;93.50;;;;;;5105326;28;20032;-68
2023/09/20 06:40:40;;;;;;;3.25;1.20;;;18.30;93.60;;;;;;5108059;28;20550;-69
2023/09/20 06:42:58;;;;;;;3.25;0.98;;;18.30;93.80;;;;;;5102425;28;20399;-68
2023/09/20 06:45:24;;;;;;;3.58;1.23;;;18.40;93.90;;;;;;5107353;28;20100;-68
2023/09/20 06:47:50;;;;;;;4.13;1.17;;;18.40;93.90;;;;;;5104171;27;20491;-68
2023/09/20 06:50:17;;;;;;;3.03;1.17;;;18.50;93.70;;;;;;5107286;28;20034;-68
2023/09/20 06:52:43;;;;;;;5.07;1.20;;;18.60;93.60;;;;;;5105992;28;20112;-68
2023/09/20 06:55:13;;;;;;;2.67;1.00;;;18.70;93.20;;;;;;5103408;28;20035;-68
2023/09/20 06:57:40;;;;;;;2.78;1.17;;;18.70;93.20;;;;;;5107362;28;20038;-69
2023/09/20 07:00:28;;;;;;;5.03;1.15;;;18.70;93.10;;;;;;5107631;28;20042;-68
2023/09/20 07:02:55;;;;;;;2.30;1.00;;;18.80;93.30;;;;;;5106695;28;20112;-69
2023/09/20 07:05:22;;;;;;;4.70;1.20;;;18.80;93.30;;;;;;5107324;28;20411;-70
2023/09/20 07:07:48;;;;;;;3.22;0.98;;;18.80;93.20;;;;;;5107026;28;20035;-68
2023/09/20 07:10:17;;;;;;;4.30;1.00;;;18.90;93.50;;;;;;5106679;28;20031;-69
2023/09/20 07:12:44;;;;;;;3.88;1.45;;;19.00;93.60;;;;;;5105036;28;20547;-69
2023/09/20 07:15:15;;;;;;;3.92;1.25;;;19.10;93.10;;;;;;5107487;27;20020;-68
2023/09/20 07:17:42;;;;;;;3.13;1.17;;;19.10;93.00;;;;;;5107276;27;20031;-69
2023/09/20 07:20:14;;;;;;;3.38;1.40;;;19.20;93.10;;;;;;5107123;28;20157;-69
2023/09/20 07:22:42;;;;;;;5.13;1.20;;;19.30;92.90;;;;;;5106819;28;20031;-68
2023/09/20 07:25:16;;;;;;;2.80;1.08;;;19.40;92.70;;;;;;5102896;28;20410;-68
2023/09/20 07:27:42;;;;;;;4.80;1.58;;;19.50;93.10;;;;;;5107035;28;20058;-69
2023/09/20 07:30:17;;;;;;;3.63;1.20;;;19.60;92.40;;;;;;5106552;28;20079;-68
2023/09/20 07:32:47;;;;;;;4.25;0.90;;;19.60;92.80;;;;;;5106500;28;20411;-69
2023/09/20 07:35:37;;;;;;;2.97;1.20;;;19.60;92.50;;;;;;5106414;28;20066;-69
2023/09/20 07:38:04;;;;;;;3.20;0.77;;;19.60;93.10;;;;;;5096621;28;20027;-69
2023/09/20 07:40:31;;;;;;;4.57;1.23;;;19.60;92.80;;;;;;5106667;28;20032;-69
2023/09/20 07:43:06;;;;;;;4.90;1.10;;;19.50;92.80;;;;;;5101860;28;20530;-69
2023/09/20 07:45:38;;;;;;;1.48;0.90;;;19.60;92.70;;;;;;5102533;28;20480;-69
2023/09/20 07:48:12;;;;;;;2.15;1.10;;;19.70;92.70;;;;;;5106143;28;20555;-68
2023/09/20 07:50:41;;;;;;;2.15;1.00;;;19.80;92.40;;;;;;5102357;28;20036;-69
2023/09/20 07:53:11;;;;;;;2.85;1.10;;;19.90;92.70;;;;;;5105996;28;20028;-69
2023/09/20 07:55:43;;;;;;;4.25;1.50;;;19.90;92.00;;;;;;5102742;28;20035;-69
2023/09/20 07:58:10;;;;;;;7.53;1.27;;;19.80;92.40;;;;;;5105754;28;20573;-69
2023/09/20 08:00:47;;;;;;;4.45;1.17;;;19.90;92.80;;;;;;5105614;28;20035;-69
2023/09/20 08:03:13;;;;;;;4.97;1.15;;;19.90;92.90;;;;;;5105951;28;20126;-69
2023/09/20 08:05:41;;;;;;;3.03;1.48;;;19.90;92.50;;;;;;5105239;28;20035;-69
2023/09/20 08:08:10;;;;;;;4.60;1.38;;;19.90;92.80;;;;;;5105908;28;20097;-69
2023/09/20 08:10:38;;;;;;;4.85;1.35;;;19.90;92.90;;;;;;5105554;28;20530;-69
2023/09/20 08:13:05;;;;;;;4.47;1.20;;;19.90;93.00;;;;;;5105683;28;20034;-68
2023/09/20 08:15:44;;;;;;;3.13;1.30;;;19.90;93.00;;;;;;5105583;28;20031;-69
2023/09/20 08:20:59;;;;;;;4.40;1.23;;;20.10;93.00;;;;;;5104499;28;20805;-69
2023/09/20 09:02:14;;;;;;;5.57;1.10;;;21.20;90.50;;;;;;5099324;28;20142;-69
2023/09/20 09:04:45;;;;;;;4.57;1.17;;;21.30;91.40;;;;;;5103265;28;20027;-69
2023/09/20 09:07:11;;;;;;;3.22;1.00;;;21.30;90.60;;;;;;5106762;28;20031;-69
2023/09/20 09:09:38;;;;;;;5.32;1.20;;;21.20;90.40;;;;;;5105307;28;20111;-69
2023/09/20 09:12:04;;;;;;;4.10;1.40;;;21.20;90.70;;;;;;5109458;28;20035;-69
2023/09/20 09:14:31;;;;;;;4.95;1.38;;;21.20;90.60;;;;;;5104901;28;20372;-69
2023/09/20 09:17:02;;;;;;;3.50;1.35;;;21.20;91.00;;;;;;5099589;28;20861;-69
2023/09/20 09:19:28;;;;;;;6.25;1.40;;;21.20;90.60;;;;;;5109602;28;20481;-69
2023/09/20 09:21:58;;;;;;;1.60;1.10;;;21.00;90.80;;;;;;5105525;28;20023;-68
2023/09/20 09:24:23;;;;;;;2.55;1.10;;;21.00;91.50;;;;;;5108753;28;20113;-69
2023/09/20 09:27:02;;;;;;;3.22;1.20;;;21.10;91.30;;;;;;5108253;28;20064;-68
2023/09/20 09:29:28;;;;;;;1.63;1.38;;;21.20;90.90;;;;;;5109178;28;20398;-69
2023/09/20 09:31:55;;;;;;;2.15;0.90;;;21.30;90.70;;;;;;5109091;27;20036;-69
2023/09/20 09:34:21;;;;;;;3.97;1.15;;;21.40;90.70;;;;;;5109298;28;20446;-69
2023/09/20 09:36:47;;;;;;;2.38;0.95;;;21.50;91.40;;;;;;5103860;28;20040;-69
2023/09/20 09:39:16;;;;;;;3.33;1.02;;;21.40;90.50;;;;;;5107576;28;20023;-69
2023/09/20 09:41:43;;;;;;;2.63;0.82;;;21.50;90.80;;;;;;5108015;28;20452;-68
2023/09/20 09:44:10;;;;;;;4.60;1.42;;;21.70;91.00;;;;;;5108731;28;20103;-69
2023/09/20 09:46:38;;;;;;;7.90;1.40;;;21.80;91.00;;;;;;5102153;28;20040;-68
2023/09/20 09:49:11;;;;;;;3.92;1.30;;;21.70;90.00;;;;;;5107293;28;20107;-69
2023/09/20 09:51:50;;;;;;;2.25;1.05;;;21.70;90.40;;;;;;5108322;28;20059;-70
2023/09/20 09:54:18;;;;;;;4.90;1.40;;;21.80;91.10;;;;;;5108639;28;20032;-69
2023/09/20 09:56:44;;;;;;;3.05;1.23;;;22.10;90.40;;;;;;5108172;27;20028;-69
2023/09/20 09:59:10;;;;;;;3.42;1.20;;;22.20;88.60;;;;;;5105835;28;20806;-69
2023/09/20 10:01:40;;;;;;;3.85;1.23;;;22.30;88.60;;;;;;5104582;28;20036;-69
2023/09/20 10:04:12;;;;;;;2.35;1.50;;;22.40;88.70;;;;;;5107372;27;20031;-69
2023/09/20 10:06:58;;;;;;;5.55;1.25;;;22.40;88.20;;;;;;5107178;28;20395;-69
2023/09/20 10:09:27;;;;;;;2.15;1.17;;;22.40;88.10;;;;;;5102174;28;20020;-69
2023/09/20 10:11:53;;;;;;;4.10;1.40;;;22.50;88.30;;;;;;5107503;28;20035;-69
2023/09/20 10:14:22;;;;;;;3.00;1.10;;;22.60;88.40;;;;;;5107191;28;20036;-69
2023/09/20 10:16:49;;;;;;;1.70;1.10;;;22.70;88.00;;;;;;5105676;28;20123;-69
2023/09/20 10:19:16;;;;;;;4.43;1.20;;;22.80;86.20;;;;;;5101575;28;20031;-69
2023/09/20 10:22:08;;;;;;;3.30;1.17;;;22.90;85.80;;;;;;5108127;28;20471;-69
2023/09/20 10:24:58;;;;;;;3.92;1.15;;;22.90;85.50;;;;;;5105794;28;20071;-68
2023/09/20 10:27:42;;;;;;;4.32;1.20;;;23.30;85.40;;;;;;5108127;28;20034;-69
2023/09/20 10:30:10;;;;;;;6.70;0.88;;;24.00;83.10;;;;;;5098873;28;20024;-68
2023/09/20 10:32:48;;;;;;;5.35;1.48;;;24.50;81.00;;;;;;5105017;28;20043;-69
2023/09/20 10:35:20;;;;;;;3.47;1.17;;;24.70;79.40;;;;;;5107741;28;20126;-69
2023/09/20 10:38:04;;;;;;;4.93;1.15;;;24.50;80.40;;;;;;5107477;28;20478;-69
2023/09/20 10:40:45;;;;;;;2.38;1.17;;;24.20;80.50;;;;;;5104339;28;20028;-69
2023/09/20 10:43:33;;;;;;;1.58;0.82;;;24.10;80.30;;;;;;5107552;28;20034;-69
2023/09/20 10:46:00;;;;;;;4.50;1.23;;;24.00;81.10;;;;;;5104028;28;20042;-69
2023/09/20 10:48:28;;;;;;;2.67;1.20;;;24.00;81.70;;;;;;5107453;28;20057;-69
2023/09/20 10:50:57;;;;;;;6.63;0.98;;;24.10;83.30;;;;;;5107185;28;20036;-69
2023/09/20 10:53:42;;;;;;;5.50;1.13;;;24.10;80.50;;;;;;5107581;28;20024;-69
2023/09/20 10:56:09;;;;;;;2.58;1.10;;;24.30;82.30;;;;;;5106784;28;20024;-68
2023/09/20 10:58:38;;;;;;;2.22;1.08;;;24.40;80.00;;;;;;5107293;28;20046;-69
2023/09/20 11:01:06;;;;;;;3.10;1.00;;;24.30;80.20;;;;;;5106791;28;20036;-69
2023/09/20 11:03:32;;;;;;;2.85;1.13;;;24.30;80.40;;;;;;5106711;28;20114;-68
2023/09/20 11:05:58;;;;;;;3.45;1.05;;;24.20;80.40;;;;;;5105999;28;20114;-69
2023/09/20 11:08:24;;;;;;;3.00;1.42;;;24.10;80.20;;;;;;5106641;28;20584;-68
2023/09/20 11:10:50;;;;;;;2.63;1.05;;;23.90;81.50;;;;;;5107100;28;20471;-69
2023/09/20 11:13:19;;;;;;;3.97;0.90;;;23.70;81.30;;;;;;5106951;28;20108;-69
2023/09/20 11:15:46;;;;;;;5.22;0.80;;;23.60;82.20;;;;;;5106900;28;20039;-69
2023/09/20 11:18:19;;;;;;;1.95;0.90;;;23.60;82.30;;;;;;5101770;28;20626;-69
2023/09/20 11:20:49;;;;;;;2.40;0.95;;;23.80;84.20;;;;;;5104756;28;20411;-69
2023/09/20 11:23:15;;;;;;;2.17;0.90;;;23.90;82.30;;;;;;5106810;28;20032;-69
2023/09/20 11:25:42;;;;;;;5.10;1.20;;;23.90;82.00;;;;;;5106406;28;20039;-69
2023/09/20 11:28:12;;;;;;;1.88;1.02;;;24.00;81.10;;;;;;5106761;28;20418;-69
2023/09/20 11:30:38;;;;;;;1.80;1.20;;;24.00;81.40;;;;;;5105718;28;20033;-69
2023/09/20 11:33:04;;;;;;;3.33;0.85;;;24.10;82.10;;;;;;5106514;28;20035;-69
2023/09/20 11:35:37;;;;;;;4.35;1.00;;;24.20;81.90;;;;;;5106208;28;20032;-69
2023/09/20 11:38:07;;;;;;;3.42;1.15;;;24.40;80.80;;;;;;5098701;28;20727;-69
2023/09/20 11:40:36;;;;;;;8.65;1.10;;;24.30;79.40;;;;;;5106618;28;20036;-69
2023/09/20 11:43:09;;;;;;;5.45;1.00;;;24.40;79.60;;;;;;5104970;28;20062;-69
2023/09/20 11:45:41;;;;;;;1.55;0.90;;;24.40;79.40;;;;;;5106281;28;20116;-69
2023/09/20 11:48:13;;;;;;;2.60;0.95;;;24.50;80.00;;;;;;5098857;28;20745;-69
2023/09/20 11:50:45;;;;;;;4.13;1.17;;;24.40;80.10;;;;;;5102571;28;20028;-69
2023/09/20 11:53:19;;;;;;;2.17;1.10;;;24.30;79.60;;;;;;5105805;28;20091;-69
2023/09/20 11:55:45;;;;;;;2.63;0.90;;;24.10;80.00;;;;;;5106106;28;20035;-69
2023/09/20 11:58:11;;;;;;;3.53;1.00;;;24.10;81.10;;;;;;5105925;28;20034;-69
2023/09/20 12:00:40;;;;;;;2.58;1.00;;;24.00;79.90;;;;;;5105927;28;20035;-68
2023/09/20 12:03:07;;;;;;;2.20;1.00;;;24.00;81.50;;;;;;5105710;28;20059;-69
2023/09/20 12:05:34;;;;;;;4.65;0.85;;;24.10;80.40;;;;;;5105887;28;20023;-69
2023/09/20 12:08:01;;;;;;;0.90;0.80;;;24.20;79.70;;;;;;5101297;28;20432;-69
2023/09/20 12:10:29;;;;;;;3.08;0.98;;;24.30;80.10;;;;;;5105376;28;20107;-70
2023/09/20 12:12:55;;;;;;;6.57;1.17;;;24.40;80.60;;;;;;5105569;28;20063;-69
2023/09/20 12:15:23;;;;;;;2.95;1.13;;;24.40;79.40;;;;;;5105345;28;20027;-69
2023/09/20 12:17:51;;;;;;;2.13;0.75;;;24.50;79.40;;;;;;5102457;28;20077;-69
2023/09/20 12:20:17;;;;;;;5.30;1.10;;;24.50;80.20;;;;;;5105649;28;20028;-69
2023/09/20 12:22:44;;;;;;;4.68;1.02;;;24.50;80.10;;;;;;5102470;28;20032;-69
2023/09/20 12:25:16;;;;;;;3.75;0.75;;;24.50;78.50;;;;;;5101142;28;20189;-69
2023/09/20 12:27:43;;;;;;;2.08;1.08;;;24.30;78.30;;;;;;5105411;28;20672;-69
2023/09/20 12:30:12;;;;;;;2.15;1.00;;;24.30;78.20;;;;;;5105528;28;20035;-69
2023/09/20 12:32:41;;;;;;;1.35;1.00;;;24.30;79.60;;;;;;5105202;28;20065;-69
2023/09/20 12:35:09;;;;;;;2.15;1.10;;;24.40;78.20;;;;;;5102386;28;20031;-69
2023/09/20 12:37:35;;;;;;;4.53;1.00;;;24.40;77.10;;;;;;5093961;27;20636;-69
2023/09/20 12:40:08;;;;;;;4.43;1.10;;;24.40;77.90;;;;;;5100170;28;20096;-69
2023/09/20 12:42:35;;;;;;;3.08;0.88;;;24.40;78.20;;;;;;5097909;28;20027;-69
2023/09/20 12:45:04;;;;;;;2.70;0.85;;;24.40;77.50;;;;;;5097363;28;20102;-69
2023/09/20 12:47:34;;;;;;;2.88;1.05;;;24.60;78.00;;;;;;5101981;28;20511;-69
2023/09/20 12:50:01;;;;;;;5.28;1.15;;;24.70;77.40;;;;;;5097116;28;20165;-69
2023/09/20 12:52:27;;;;;;;3.05;0.93;;;24.80;78.90;;;;;;5104698;28;20487;-69
2023/09/20 12:54:52;;;;;;;3.08;0.85;;;24.80;77.70;;;;;;5104683;28;20502;-69
2023/09/20 12:57:20;;;;;;;2.17;0.85;;;24.80;77.30;;;;;;5104503;28;20059;-69
2023/09/20 12:59:46;;;;;;;3.42;1.15;;;24.80;79.40;;;;;;5100045;28;20062;-69
2023/09/20 13:02:12;;;;;;;3.28;1.00;;;24.80;79.20;;;;;;5105090;28;20070;-69
2023/09/20 13:04:37;;;;;;;6.38;1.10;;;24.90;77.70;;;;;;5104748;28;20031;-69
2023/09/20 13:07:03;;;;;;;3.78;1.30;;;25.00;76.30;;;;;;5103479;28;20032;-69
2023/09/20 13:09:29;;;;;;;2.03;1.10;;;25.10;76.40;;;;;;5105283;28;20112;-69
2023/09/20 13:11:55;;;;;;;4.18;0.90;;;25.30;76.90;;;;;;5098542;28;20067;-69
2023/09/20 13:14:21;;;;;;;3.05;1.05;;;25.30;75.10;;;;;;5104651;28;20092;-69
2023/09/20 13:16:50;;;;;;;4.07;0.90;;;25.40;75.20;;;;;;5102351;28;20134;-69
2023/09/20 13:19:16;;;;;;;5.85;1.23;;;25.60;75.60;;;;;;5099537;28;20020;-69
2023/09/20 13:21:43;;;;;;;4.15;1.10;;;25.60;74.30;;;;;;5104836;28;20074;-69
2023/09/20 13:24:09;;;;;;;3.88;1.60;;;25.70;75.00;;;;;;5101450;28;20035;-69
2023/09/20 13:26:38;;;;;;;2.10;1.00;;;25.60;74.80;;;;;;5098039;28;20775;-69
2023/09/20 13:29:05;;;;;;;2.58;1.08;;;25.40;74.80;;;;;;5102800;28;20092;-70
2023/09/20 13:31:35;;;;;;;3.60;1.38;;;25.20;75.20;;;;;;5105009;28;20031;-69
2023/09/20 13:34:03;;;;;;;5.50;1.25;;;24.90;75.90;;;;;;5102068;28;20734;-70
2023/09/20 13:36:28;;;;;;;5.43;1.30;;;24.80;76.10;;;;;;5101728;28;20035;-69